createdAt,value
2024-04-14T00:00:06.568Z,1001.64
2024-04-14T00:00:26.539Z,1001.66
2024-04-14T00:00:36.671Z,1001.68
2024-04-14T00:00:47.257Z,1001.68
2024-04-14T00:00:56.536Z,1001.66
2024-04-14T00:01:06.627Z,1001.64
2024-04-14T00:01:16.516Z,1001.65
2024-04-14T00:01:26.563Z,1001.69
2024-04-14T00:01:46.539Z,1001.66
2024-04-14T00:01:56.550Z,1001.67
2024-04-14T00:02:06.576Z,1001.69
2024-04-14T00:02:16.476Z,1001.62
2024-04-14T00:02:26.506Z,1001.64
2024-04-14T00:02:37.246Z,1001.63
2024-04-14T00:02:46.568Z,1001.61
2024-04-14T00:03:06.496Z,1001.60
2024-04-14T00:03:16.569Z,1001.62
2024-04-14T00:03:26.566Z,1001.60
2024-04-14T00:03:36.497Z,1001.60
2024-04-14T00:03:46.565Z,1001.59
2024-04-14T00:03:56.511Z,1001.61
2024-04-14T00:04:17.499Z,1001.60
2024-04-14T00:04:26.567Z,1001.61
2024-04-14T00:04:36.668Z,1001.61
2024-04-14T00:04:46.731Z,1001.60
2024-04-14T00:04:56.585Z,1001.62
2024-04-14T00:05:06.666Z,1001.60
2024-04-14T00:05:26.495Z,1001.64
2024-04-14T00:05:36.547Z,1001.60
2024-04-14T00:05:46.445Z,1001.63
2024-04-14T00:05:56.470Z,1001.61
2024-04-14T00:06:06.496Z,1001.61
2024-04-14T00:06:16.458Z,1001.63
2024-04-14T00:06:26.558Z,1001.60
2024-04-14T00:06:46.544Z,1001.62
2024-04-14T00:06:56.691Z,1001.64
2024-04-14T00:07:06.518Z,1001.61
2024-04-14T00:07:16.444Z,1001.61
2024-04-14T00:07:26.444Z,1001.60
2024-04-14T00:07:36.463Z,1001.61
2024-04-14T00:07:56.447Z,1001.60
2024-04-14T00:08:06.533Z,1001.62
2024-04-14T00:08:16.504Z,1001.59
2024-04-14T00:08:29.328Z,1001.59
2024-04-14T00:08:36.455Z,1001.55
2024-04-14T00:08:46.425Z,1001.60
2024-04-14T00:09:06.614Z,1001.57
2024-04-14T00:09:16.434Z,1001.63
2024-04-14T00:09:26.486Z,1001.61
2024-04-14T00:09:36.509Z,1001.57
2024-04-14T00:09:46.498Z,1001.55
2024-04-14T00:09:56.487Z,1001.57
2024-04-14T00:10:16.438Z,1001.57
2024-04-14T00:10:27.421Z,1001.57
2024-04-14T00:10:36.439Z,1001.55
2024-04-14T00:10:46.595Z,1001.52
2024-04-14T00:10:56.476Z,1001.55
2024-04-14T00:11:06.450Z,1001.54
2024-04-14T00:11:16.580Z,1001.52
2024-04-14T00:11:36.445Z,1001.54
2024-04-14T00:11:46.489Z,1001.57
2024-04-14T00:11:56.414Z,1001.52
2024-04-14T00:12:06.441Z,1001.54
2024-04-14T00:12:16.464Z,1001.54
2024-04-14T00:12:26.451Z,1001.50
2024-04-14T00:12:46.442Z,1001.49
2024-04-14T00:12:56.530Z,1001.54
2024-04-14T00:13:06.478Z,1001.51
2024-04-14T00:13:16.439Z,1001.52
2024-04-14T00:13:26.425Z,1001.50
2024-04-14T00:13:36.455Z,1001.52
2024-04-14T00:13:46.462Z,1001.53
2024-04-14T00:14:06.435Z,1001.56
2024-04-14T00:14:16.445Z,1001.54
2024-04-14T00:14:26.458Z,1001.54
2024-04-14T00:14:36.445Z,1001.58
2024-04-14T00:14:47.282Z,1001.53
2024-04-14T00:14:56.428Z,1001.47
2024-04-14T00:15:07.275Z,1001.54
2024-04-14T00:15:16.528Z,1001.51
2024-04-14T00:15:36.453Z,1001.50
2024-04-14T00:15:46.460Z,1001.52
2024-04-14T00:15:56.511Z,1001.49
2024-04-14T00:16:06.469Z,1001.49
2024-04-14T00:16:17.258Z,1001.52
2024-04-14T00:16:26.518Z,1001.48
2024-04-14T00:16:46.422Z,1001.50
2024-04-14T00:16:56.436Z,1001.51
2024-04-14T00:17:06.452Z,1001.52
2024-04-14T00:17:16.483Z,1001.55
2024-04-14T00:17:26.544Z,1001.49
2024-04-14T00:17:36.529Z,1001.52
2024-04-14T00:17:56.468Z,1001.50
2024-04-14T00:18:06.602Z,1001.48
2024-04-14T00:18:16.490Z,1001.49
2024-04-14T00:18:26.534Z,1001.49
2024-04-14T00:18:36.553Z,1001.49
2024-04-14T00:18:46.624Z,1001.50
2024-04-14T00:18:56.507Z,1001.50
2024-04-14T00:19:17.376Z,1001.45
2024-04-14T00:19:26.396Z,1001.46
2024-04-14T00:19:36.541Z,1001.48
2024-04-14T00:19:46.429Z,1001.46
2024-04-14T00:19:56.378Z,1001.44
2024-04-14T00:20:06.426Z,1001.47
2024-04-14T00:20:26.407Z,1001.47
2024-04-14T00:20:36.404Z,1001.46
2024-04-14T00:20:47.226Z,1001.49
2024-04-14T00:20:56.368Z,1001.51
2024-04-14T00:21:06.420Z,1001.49
2024-04-14T00:21:16.390Z,1001.50
2024-04-14T00:21:26.451Z,1001.49
2024-04-14T00:21:36.568Z,1001.51
2024-04-14T00:21:56.487Z,1001.52
2024-04-14T00:22:06.422Z,1001.52
2024-04-14T00:22:16.383Z,1001.49
2024-04-14T00:22:26.369Z,1001.50
2024-04-14T00:22:36.598Z,1001.54
2024-04-14T00:22:46.434Z,1001.50
2024-04-14T00:22:57.276Z,1001.52
2024-04-14T00:23:16.380Z,1001.49
2024-04-14T00:23:27.277Z,1001.48
2024-04-14T00:23:36.474Z,1001.53
2024-04-14T00:23:46.360Z,1001.52
2024-04-14T00:23:56.420Z,1001.50
2024-04-14T00:24:06.373Z,1001.52
2024-04-14T00:24:26.395Z,1001.51
2024-04-14T00:24:36.473Z,1001.50
2024-04-14T00:24:46.436Z,1001.49
2024-04-14T00:24:56.474Z,1001.49
2024-04-14T00:25:07.278Z,1001.51
2024-04-14T00:25:16.425Z,1001.49
2024-04-14T00:25:26.403Z,1001.50
2024-04-14T00:25:36.433Z,1001.52
2024-04-14T00:25:56.380Z,1001.50
2024-04-14T00:26:06.412Z,1001.49
2024-04-14T00:26:16.396Z,1001.49
2024-04-14T00:26:26.375Z,1001.43
2024-04-14T00:26:36.342Z,1001.38
2024-04-14T00:26:46.391Z,1001.46
2024-04-14T00:27:06.452Z,1001.45
2024-04-14T00:27:16.379Z,1001.44
2024-04-14T00:27:26.358Z,1001.41
2024-04-14T00:27:36.419Z,1001.39
2024-04-14T00:27:46.552Z,1001.39
2024-04-14T00:27:56.473Z,1001.41
2024-04-14T00:28:16.384Z,1001.38
2024-04-14T00:28:26.384Z,1001.39
2024-04-14T00:28:36.375Z,1001.41
2024-04-14T00:28:46.445Z,1001.40
2024-04-14T00:28:56.343Z,1001.39
2024-04-14T00:29:06.347Z,1001.42
2024-04-14T00:29:16.397Z,1001.45
2024-04-14T00:29:36.334Z,1001.37
2024-04-14T00:29:46.381Z,1001.36
2024-04-14T00:29:56.341Z,1001.41
2024-04-14T00:30:06.357Z,1001.40
2024-04-14T00:30:16.376Z,1001.39
2024-04-14T00:30:26.366Z,1001.36
2024-04-14T00:30:36.418Z,1001.35
2024-04-14T00:30:57.315Z,1001.35
2024-04-14T00:31:06.388Z,1001.35
2024-04-14T00:31:17.249Z,1001.34
2024-04-14T00:31:26.368Z,1001.35
2024-04-14T00:31:36.394Z,1001.39
2024-04-14T00:31:46.383Z,1001.36
2024-04-14T00:32:06.373Z,1001.37
2024-04-14T00:32:16.338Z,1001.35
2024-04-14T00:32:26.394Z,1001.35
2024-04-14T00:32:36.433Z,1001.40
2024-04-14T00:32:46.356Z,1001.30
2024-04-14T00:32:56.451Z,1001.38
2024-04-14T00:33:16.527Z,1001.36
2024-04-14T00:33:26.359Z,1001.31
2024-04-14T00:33:36.532Z,1001.33
2024-04-14T00:33:46.456Z,1001.35
2024-04-14T00:33:56.440Z,1001.34
2024-04-14T00:34:06.491Z,1001.34
2024-04-14T00:34:16.376Z,1001.31
2024-04-14T00:34:26.329Z,1001.32
2024-04-14T00:34:46.371Z,1001.32
2024-04-14T00:34:56.349Z,1001.28
2024-04-14T00:35:07.419Z,1001.31
2024-04-14T00:35:16.336Z,1001.35
2024-04-14T00:35:26.335Z,1001.34
2024-04-14T00:35:37.397Z,1001.33
2024-04-14T00:35:57.366Z,1001.30
2024-04-14T00:36:06.500Z,1001.28
2024-04-14T00:36:16.514Z,1001.28
2024-04-14T00:36:26.324Z,1001.30
2024-04-14T00:36:37.303Z,1001.29
2024-04-14T00:36:46.344Z,1001.28
2024-04-14T00:37:06.323Z,1001.26
2024-04-14T00:37:16.379Z,1001.26
2024-04-14T00:37:26.313Z,1001.24
2024-04-14T00:37:36.345Z,1001.19
2024-04-14T00:37:46.329Z,1001.25
2024-04-14T00:37:56.340Z,1001.25
2024-04-14T00:38:06.454Z,1001.24
2024-04-14T00:38:26.312Z,1001.25
2024-04-14T00:38:37.237Z,1001.25
2024-04-14T00:38:46.373Z,1001.27
2024-04-14T00:38:56.305Z,1001.25
2024-04-14T00:39:06.290Z,1001.26
2024-04-14T00:39:16.316Z,1001.27
2024-04-14T00:39:36.324Z,1001.26
2024-04-14T00:39:46.369Z,1001.24
2024-04-14T00:39:56.343Z,1001.26
2024-04-14T00:40:06.337Z,1001.28
2024-04-14T00:40:16.287Z,1001.28
2024-04-14T00:40:26.323Z,1001.23
2024-04-14T00:40:36.328Z,1001.24
2024-04-14T00:40:56.325Z,1001.26
2024-04-14T00:41:06.325Z,1001.22
2024-04-14T00:41:16.282Z,1001.23
2024-04-14T00:41:26.297Z,1001.25
2024-04-14T00:41:36.313Z,1001.26
2024-04-14T00:41:46.306Z,1001.26
2024-04-14T00:42:06.316Z,1001.23
2024-04-14T00:42:16.334Z,1001.23
2024-04-14T00:42:26.299Z,1001.26
2024-04-14T00:42:36.359Z,1001.25
2024-04-14T00:42:46.394Z,1001.23
2024-04-14T00:42:56.377Z,1001.26
2024-04-14T00:43:06.363Z,1001.26
2024-04-14T00:43:16.819Z,1001.26
2024-04-14T00:43:36.282Z,1001.23
2024-04-14T00:43:46.272Z,1001.25
2024-04-14T00:43:56.293Z,1001.17
2024-04-14T00:44:06.272Z,1001.18
2024-04-14T00:44:16.287Z,1001.18
2024-04-14T00:44:26.432Z,1001.23
2024-04-14T00:44:36.356Z,1001.22
2024-04-14T00:44:56.268Z,1001.21
2024-04-14T00:45:06.307Z,1001.26
2024-04-14T00:45:16.266Z,1001.25
2024-04-14T00:45:26.288Z,1001.25
2024-04-14T00:45:36.295Z,1001.23
2024-04-14T00:45:46.396Z,1001.24
2024-04-14T00:45:56.366Z,1001.26
2024-04-14T00:46:06.337Z,1001.23
2024-04-14T00:46:26.321Z,1001.20
2024-04-14T00:46:36.408Z,1001.21
2024-04-14T00:46:46.299Z,1001.21
2024-04-14T00:46:56.277Z,1001.22
2024-04-14T00:47:06.271Z,1001.21
2024-04-14T00:47:16.250Z,1001.26
2024-04-14T00:47:36.308Z,1001.22
2024-04-14T00:47:46.311Z,1001.21
2024-04-14T00:47:57.388Z,1001.15
2024-04-14T00:48:06.348Z,1001.15
2024-04-14T00:48:16.432Z,1001.17
2024-04-14T00:48:26.431Z,1001.20
2024-04-14T00:48:37.463Z,1001.16
2024-04-14T00:48:46.318Z,1001.20
2024-04-14T00:48:57.511Z,1001.17
2024-04-14T00:49:16.326Z,1001.22
2024-04-14T00:49:26.412Z,1001.22
2024-04-14T00:49:36.237Z,1001.21
2024-04-14T00:49:46.269Z,1001.19
2024-04-14T00:49:56.351Z,1001.17
2024-04-14T00:50:06.265Z,1001.18
2024-04-14T00:50:16.354Z,1001.15
2024-04-14T00:50:36.320Z,1001.21
2024-04-14T00:50:46.239Z,1001.21
2024-04-14T00:50:56.270Z,1001.19
2024-04-14T00:51:06.261Z,1001.23
2024-04-14T00:51:16.279Z,1001.18
2024-04-14T00:51:26.297Z,1001.22
2024-04-14T00:51:46.273Z,1001.15
2024-04-14T00:51:56.286Z,1001.14
2024-04-14T00:52:06.259Z,1001.19
2024-04-14T00:52:16.291Z,1001.21
2024-04-14T00:52:26.273Z,1001.20
2024-04-14T00:52:36.890Z,1001.17
2024-04-14T00:52:56.257Z,1001.21
2024-04-14T00:53:06.338Z,1001.22
2024-04-14T00:53:16.247Z,1001.19
2024-04-14T00:53:26.251Z,1001.21
2024-04-14T00:53:36.370Z,1001.22
2024-04-14T00:53:46.265Z,1001.20
2024-04-14T00:53:56.288Z,1001.20
2024-04-14T00:54:16.254Z,1001.21
2024-04-14T00:54:26.271Z,1001.21
2024-04-14T00:54:36.299Z,1001.19
2024-04-14T00:54:46.391Z,1001.23
2024-04-14T00:54:56.449Z,1001.23
2024-04-14T00:55:06.370Z,1001.18
2024-04-14T00:55:26.228Z,1001.25
2024-04-14T00:55:36.260Z,1001.24
2024-04-14T00:55:46.226Z,1001.19
2024-04-14T00:55:56.232Z,1001.22
2024-04-14T00:56:06.238Z,1001.22
2024-04-14T00:56:16.236Z,1001.24
2024-04-14T00:56:26.294Z,1001.20
2024-04-14T00:56:46.281Z,1001.23
2024-04-14T00:56:56.216Z,1001.20
2024-04-14T00:57:06.254Z,1001.20
2024-04-14T00:57:16.254Z,1001.16
2024-04-14T00:57:26.242Z,1001.15
2024-04-14T00:57:36.248Z,1001.16
2024-04-14T00:57:56.286Z,1001.18
2024-04-14T00:58:06.311Z,1001.20
2024-04-14T00:58:16.231Z,1001.20
2024-04-14T00:58:26.787Z,1001.17
2024-04-14T00:58:36.319Z,1001.21
2024-04-14T00:58:46.280Z,1001.20
2024-04-14T00:58:56.292Z,1001.18
2024-04-14T00:59:06.345Z,1001.15
2024-04-14T00:59:16.211Z,1001.10
2024-04-14T00:59:36.251Z,1001.16
2024-04-14T00:59:46.206Z,1001.16
2024-04-14T00:59:56.219Z,1001.10
2024-04-14T01:00:06.264Z,1001.15
2024-04-14T01:00:16.239Z,1001.16
2024-04-14T01:00:26.301Z,1001.08
2024-04-14T01:00:36.312Z,1001.08
2024-04-14T01:00:46.352Z,1001.14
2024-04-14T01:00:56.447Z,1001.13
2024-04-14T01:01:16.837Z,1001.14
2024-04-14T01:01:26.285Z,1001.12
2024-04-14T01:01:36.235Z,1001.12
2024-04-14T01:01:46.266Z,1001.11
2024-04-14T01:01:56.242Z,1001.07
2024-04-14T01:02:07.560Z,1001.13
2024-04-14T01:02:26.251Z,1001.12
2024-04-14T01:02:36.196Z,1001.16
2024-04-14T01:02:46.308Z,1001.04
2024-04-14T01:02:56.961Z,1001.12
2024-04-14T01:03:06.254Z,1001.15
2024-04-14T01:03:16.264Z,1001.16
2024-04-14T01:03:26.434Z,1001.09
2024-04-14T01:03:36.417Z,1001.13
2024-04-14T01:03:56.369Z,1001.12
2024-04-14T01:04:06.373Z,1001.10
2024-04-14T01:04:16.365Z,1001.11
2024-04-14T01:04:26.815Z,1001.09
2024-04-14T01:04:36.341Z,1001.14
2024-04-14T01:04:46.318Z,1001.16
2024-04-14T01:05:06.261Z,1001.15
2024-04-14T01:05:16.264Z,1001.06
2024-04-14T01:05:26.196Z,1001.10
2024-04-14T01:05:36.205Z,1001.12
2024-04-14T01:05:46.771Z,1001.15
2024-04-14T01:05:56.171Z,1001.14
2024-04-14T01:06:16.183Z,1001.13
2024-04-14T01:06:26.232Z,1001.02
2024-04-14T01:06:36.295Z,1001.06
2024-04-14T01:06:46.259Z,1001.08
2024-04-14T01:06:56.410Z,1001.17
2024-04-14T01:07:06.251Z,1001.12
2024-04-14T01:07:16.272Z,1001.05
2024-04-14T01:07:26.223Z,1001.05
2024-04-14T01:07:46.215Z,1001.08
2024-04-14T01:07:56.306Z,1001.12
2024-04-14T01:08:06.214Z,1001.03
2024-04-14T01:08:16.263Z,1001.09
2024-04-14T01:08:26.279Z,1001.04
2024-04-14T01:08:36.176Z,1001.04
2024-04-14T01:08:46.762Z,1001.04
2024-04-14T01:09:06.216Z,1001.04
2024-04-14T01:09:16.768Z,1001.08
2024-04-14T01:09:26.254Z,1001.03
2024-04-14T01:09:36.276Z,1001.03
2024-04-14T01:09:46.210Z,1001.03
2024-04-14T01:09:56.336Z,1000.99
2024-04-14T01:10:16.776Z,1001.01
2024-04-14T01:10:26.165Z,1000.98
2024-04-14T01:10:36.172Z,1001.04
2024-04-14T01:10:46.185Z,1000.98
2024-04-14T01:10:56.247Z,1001.03
2024-04-14T01:11:06.229Z,1001.02
2024-04-14T01:11:26.207Z,1001.02
2024-04-14T01:11:36.178Z,1001.04
2024-04-14T01:11:46.235Z,1001.00
2024-04-14T01:11:56.194Z,1001.06
2024-04-14T01:12:06.141Z,1001.05
2024-04-14T01:12:16.180Z,1001.00
2024-04-14T01:12:26.256Z,1000.99
2024-04-14T01:12:46.219Z,1001.01
2024-04-14T01:12:56.299Z,1000.97
2024-04-14T01:13:06.198Z,1001.01
2024-04-14T01:13:16.205Z,1001.00
2024-04-14T01:13:26.211Z,1000.95
2024-04-14T01:13:36.261Z,1000.94
2024-04-14T01:13:46.204Z,1000.96
2024-04-14T01:14:06.196Z,1000.94
2024-04-14T01:14:16.366Z,1000.95
2024-04-14T01:14:26.760Z,1000.95
2024-04-14T01:14:36.176Z,1000.93
2024-04-14T01:14:46.134Z,1000.97
2024-04-14T01:14:56.160Z,1000.91
2024-04-14T01:15:06.160Z,1000.88
2024-04-14T01:15:26.149Z,1000.93
2024-04-14T01:15:36.217Z,1000.88
2024-04-14T01:15:46.182Z,1000.92
2024-04-14T01:15:56.285Z,1000.90
2024-04-14T01:16:06.275Z,1000.91
2024-04-14T01:16:16.143Z,1000.96
2024-04-14T01:16:26.171Z,1000.89
2024-04-14T01:16:46.140Z,1000.94
2024-04-14T01:16:56.142Z,1000.93
2024-04-14T01:17:06.229Z,1000.91
2024-04-14T01:17:16.221Z,1000.93
2024-04-14T01:17:26.170Z,1000.91
2024-04-14T01:17:36.959Z,1000.91
2024-04-14T01:17:46.308Z,1000.89
2024-04-14T01:17:56.355Z,1000.89
2024-04-14T01:18:16.143Z,1000.94
2024-04-14T01:18:26.207Z,1000.92
2024-04-14T01:18:36.208Z,1000.90
2024-04-14T01:18:46.193Z,1000.91
2024-04-14T01:18:56.204Z,1000.90
2024-04-14T01:19:06.281Z,1000.87
2024-04-14T01:19:16.182Z,1000.88
2024-04-14T01:19:26.170Z,1000.88
2024-04-14T01:19:46.166Z,1000.87
2024-04-14T01:19:56.156Z,1000.88
2024-04-14T01:20:06.118Z,1000.86
2024-04-14T01:20:16.179Z,1000.87
2024-04-14T01:20:26.129Z,1000.87
2024-04-14T01:20:36.138Z,1000.85
2024-04-14T01:20:46.199Z,1000.85
2024-04-14T01:21:06.150Z,1000.87
2024-04-14T01:21:16.756Z,1000.84
2024-04-14T01:21:26.218Z,1000.85
2024-04-14T01:21:36.173Z,1000.88
2024-04-14T01:21:46.920Z,1000.85
2024-04-14T01:21:56.306Z,1000.87
2024-04-14T01:22:06.165Z,1000.86
2024-04-14T01:22:26.163Z,1000.83
2024-04-14T01:22:36.131Z,1000.82
2024-04-14T01:22:46.262Z,1000.91
2024-04-14T01:22:56.122Z,1000.88
2024-04-14T01:23:06.201Z,1000.84
2024-04-14T01:23:16.172Z,1000.87
2024-04-14T01:23:26.139Z,1000.85
2024-04-14T01:23:46.145Z,1000.86
2024-04-14T01:23:56.137Z,1000.87
2024-04-14T01:24:06.127Z,1000.86
2024-04-14T01:24:16.163Z,1000.83
2024-04-14T01:24:26.230Z,1000.89
2024-04-14T01:24:36.171Z,1000.91
2024-04-14T01:24:57.811Z,1000.86
2024-04-14T01:25:06.191Z,1000.91
2024-04-14T01:25:16.174Z,1000.88
2024-04-14T01:25:26.087Z,1000.89
2024-04-14T01:25:36.192Z,1000.86
2024-04-14T01:25:46.127Z,1000.88
2024-04-14T01:25:56.111Z,1000.87
2024-04-14T01:26:06.943Z,1000.89
2024-04-14T01:26:26.093Z,1000.88
2024-04-14T01:26:36.102Z,1000.86
2024-04-14T01:26:46.157Z,1000.92
2024-04-14T01:26:56.168Z,1000.86
2024-04-14T01:27:06.124Z,1000.87
2024-04-14T01:27:16.560Z,1000.93
2024-04-14T01:27:26.874Z,1000.87
2024-04-14T01:27:36.216Z,1000.86
2024-04-14T01:27:56.858Z,1000.87
2024-04-14T01:28:06.197Z,1000.90
2024-04-14T01:28:16.129Z,1000.87
2024-04-14T01:28:26.119Z,1000.87
2024-04-14T01:28:36.076Z,1000.84
2024-04-14T01:28:46.094Z,1000.81
2024-04-14T01:29:06.093Z,1000.84
2024-04-14T01:29:16.083Z,1000.81
2024-04-14T01:29:26.117Z,1000.83
2024-04-14T01:29:36.145Z,1000.84
2024-04-14T01:29:46.312Z,1000.81
2024-04-14T01:29:56.126Z,1000.80
2024-04-14T01:30:06.102Z,1000.85
2024-04-14T01:30:26.108Z,1000.84
2024-04-14T01:30:36.113Z,1000.80
2024-04-14T01:30:46.125Z,1000.81
2024-04-14T01:30:56.134Z,1000.85
2024-04-14T01:31:06.061Z,1000.85
2024-04-14T01:31:16.845Z,1000.78
2024-04-14T01:31:26.096Z,1000.87
2024-04-14T01:31:46.092Z,1000.79
2024-04-14T01:31:56.127Z,1000.80
2024-04-14T01:32:06.162Z,1000.84
2024-04-14T01:32:16.144Z,1000.82
2024-04-14T01:32:26.110Z,1000.82
2024-04-14T01:32:36.100Z,1000.81
2024-04-14T01:32:56.250Z,1000.84
2024-04-14T01:33:06.158Z,1000.82
2024-04-14T01:33:16.058Z,1000.87
2024-04-14T01:33:26.125Z,1000.80
2024-04-14T01:33:36.092Z,1000.80
2024-04-14T01:33:46.129Z,1000.82
2024-04-14T01:34:06.757Z,1000.85
2024-04-14T01:34:16.755Z,1000.88
2024-04-14T01:34:26.764Z,1000.89
2024-04-14T01:34:36.759Z,1000.88
2024-04-14T01:34:46.057Z,1000.91
2024-04-14T01:34:56.114Z,1000.85
2024-04-14T01:35:16.086Z,1000.85
2024-04-14T01:35:26.059Z,1000.87
2024-04-14T01:35:36.100Z,1000.81
2024-04-14T01:35:46.092Z,1000.89
2024-04-14T01:35:56.087Z,1000.87
2024-04-14T01:36:06.044Z,1000.88
2024-04-14T01:36:16.071Z,1000.87
2024-04-14T01:36:26.131Z,1000.85
2024-04-14T01:36:36.852Z,1000.86
2024-04-14T01:36:56.153Z,1000.83
2024-04-14T01:37:06.041Z,1000.89
2024-04-14T01:37:16.120Z,1000.88
2024-04-14T01:37:26.050Z,1000.87
2024-04-14T01:37:36.107Z,1000.85
2024-04-14T01:37:46.056Z,1000.86
2024-04-14T01:38:15.901Z,1000.89
2024-04-14T01:38:22.105Z,1000.83
2024-04-14T01:38:26.808Z,1000.83
2024-04-14T01:38:36.044Z,1000.88
2024-04-14T01:38:46.057Z,1000.88
2024-04-14T01:38:56.043Z,1000.89
2024-04-14T01:39:16.079Z,1000.85
2024-04-14T01:39:26.192Z,1000.88
2024-04-14T01:39:36.156Z,1000.83
2024-04-14T01:39:46.041Z,1000.88
2024-04-14T01:39:56.133Z,1000.85
2024-04-14T01:40:06.083Z,1000.83
2024-04-14T01:40:16.083Z,1000.84
2024-04-14T01:40:26.101Z,1000.87
2024-04-14T01:40:46.150Z,1000.87
2024-04-14T01:40:56.043Z,1000.84
2024-04-14T01:41:06.043Z,1000.87
2024-04-14T01:41:16.094Z,1000.81
2024-04-14T01:41:26.051Z,1000.81
2024-04-14T01:41:36.077Z,1000.82
2024-04-14T01:41:56.764Z,1000.85
2024-04-14T01:42:06.056Z,1000.82
2024-04-14T01:42:16.043Z,1000.89
2024-04-14T01:42:26.046Z,1000.86
2024-04-14T01:42:36.821Z,1000.89
2024-04-14T01:42:46.056Z,1000.88
2024-04-14T01:43:06.038Z,1000.80
2024-04-14T01:43:16.032Z,1000.80
2024-04-14T01:43:26.136Z,1000.83
2024-04-14T01:43:36.053Z,1000.83
2024-04-14T01:43:46.015Z,1000.77
2024-04-14T01:43:56.018Z,1000.82
2024-04-14T01:44:16.763Z,1000.80
2024-04-14T01:44:26.848Z,1000.81
2024-04-14T01:44:36.120Z,1000.80
2024-04-14T01:44:46.049Z,1000.82
2024-04-14T01:44:56.012Z,1000.88
2024-04-14T01:45:06.001Z,1000.89
2024-04-14T01:45:17.251Z,1000.86
2024-04-14T01:45:36.107Z,1000.75
2024-04-14T01:45:46.118Z,1000.85
2024-04-14T01:45:56.084Z,1000.77
2024-04-14T01:46:06.055Z,1000.79
2024-04-14T01:46:16.010Z,1000.77
2024-04-14T01:46:25.996Z,1000.79
2024-04-14T01:46:46.764Z,1000.84
2024-04-14T01:46:56.002Z,1000.81
2024-04-14T01:47:06.045Z,1000.84
2024-04-14T01:47:16.019Z,1000.81
2024-04-14T01:47:26.057Z,1000.82
2024-04-14T01:47:36.116Z,1000.79
2024-04-14T01:47:56.099Z,1000.77
2024-04-14T01:48:06.180Z,1000.81
2024-04-14T01:48:16.151Z,1000.79
2024-04-14T01:48:26.081Z,1000.85
2024-04-14T01:48:36.141Z,1000.80
2024-04-14T01:48:46.208Z,1000.76
2024-04-14T01:48:56.206Z,1000.77
2024-04-14T01:49:06.177Z,1000.79
2024-04-14T01:49:16.175Z,1000.80
2024-04-14T01:49:26.089Z,1000.84
2024-04-14T01:49:46.035Z,1000.79
2024-04-14T01:49:56.011Z,1000.79
2024-04-14T01:50:06.034Z,1000.80
2024-04-14T01:50:15.999Z,1000.81
2024-04-14T01:50:26.093Z,1000.74
2024-04-14T01:50:36.106Z,1000.78
2024-04-14T01:50:46.043Z,1000.77
2024-04-14T01:50:56.784Z,1000.80
2024-04-14T01:51:16.064Z,1000.76
2024-04-14T01:51:26.020Z,1000.76
2024-04-14T01:51:36.025Z,1000.76
2024-04-14T01:51:46.010Z,1000.73
2024-04-14T01:51:56.036Z,1000.78
2024-04-14T01:52:06.014Z,1000.72
2024-04-14T01:52:26.798Z,1000.74
2024-04-14T01:52:36.796Z,1000.76
2024-04-14T01:52:45.996Z,1000.73
2024-04-14T01:52:56.789Z,1000.78
2024-04-14T01:53:06.047Z,1000.74
2024-04-14T01:53:15.998Z,1000.76
2024-04-14T01:53:36.058Z,1000.76
2024-04-14T01:53:45.968Z,1000.76
2024-04-14T01:53:56.841Z,1000.83
2024-04-14T01:54:06.791Z,1000.80
2024-04-14T01:54:16.005Z,1000.74
2024-04-14T01:54:26.070Z,1000.80
2024-04-14T01:54:36.083Z,1000.76
2024-04-14T01:54:46.019Z,1000.77
2024-04-14T01:55:06.782Z,1000.86
2024-04-14T01:55:15.955Z,1000.77
2024-04-14T01:55:26.158Z,1000.83
2024-04-14T01:55:36.059Z,1000.79
2024-04-14T01:55:46.032Z,1000.80
2024-04-14T01:55:55.965Z,1000.75
2024-04-14T01:56:16.105Z,1000.80
2024-04-14T01:56:25.960Z,1000.78
2024-04-14T01:56:35.959Z,1000.73
2024-04-14T01:56:45.986Z,1000.75
2024-04-14T01:56:55.949Z,1000.74
2024-04-14T01:57:06.000Z,1000.74
2024-04-14T01:57:25.983Z,1000.77
2024-04-14T01:57:36.027Z,1000.77
2024-04-14T01:57:46.002Z,1000.75
2024-04-14T01:57:56.098Z,1000.76
2024-04-14T01:58:06.051Z,1000.74
2024-04-14T01:58:16.008Z,1000.78
2024-04-14T01:58:25.966Z,1000.79
2024-04-14T01:58:45.979Z,1000.82
2024-04-14T01:58:55.955Z,1000.81
2024-04-14T01:59:06.015Z,1000.77
2024-04-14T01:59:16.754Z,1000.81
2024-04-14T01:59:25.978Z,1000.76
2024-04-14T01:59:36.126Z,1000.80
2024-04-14T01:59:56.033Z,1000.78
2024-04-14T02:00:05.979Z,1000.74
2024-04-14T02:00:15.949Z,1000.76
2024-04-14T02:00:26.023Z,1000.76
2024-04-14T02:00:36.068Z,1000.78
2024-04-14T02:00:46.176Z,1000.76
2024-04-14T02:01:05.992Z,1000.77
2024-04-14T02:01:16.028Z,1000.74
2024-04-14T02:01:26.132Z,1000.77
2024-04-14T02:01:36.020Z,1000.73
2024-04-14T02:01:46.116Z,1000.77
2024-04-14T02:01:56.003Z,1000.78
2024-04-14T02:02:05.986Z,1000.75
2024-04-14T02:02:25.970Z,1000.78
2024-04-14T02:02:36.037Z,1000.78
2024-04-14T02:02:45.993Z,1000.78
2024-04-14T02:02:56.069Z,1000.76
2024-04-14T02:03:06.000Z,1000.78
2024-04-14T02:03:16.837Z,1000.74
2024-04-14T02:03:26.894Z,1000.79
2024-04-14T02:03:36.173Z,1000.77
2024-04-14T02:03:56.042Z,1000.76
2024-04-14T02:04:06.130Z,1000.73
2024-04-14T02:04:26.012Z,1000.76
2024-04-14T02:04:35.995Z,1000.75
2024-04-14T02:04:46.159Z,1000.76
2024-04-14T02:04:55.968Z,1000.73
2024-04-14T02:05:15.994Z,1000.71
2024-04-14T02:05:25.932Z,1000.72
2024-04-14T02:05:35.984Z,1000.72
2024-04-14T02:05:45.981Z,1000.75
2024-04-14T02:05:56.005Z,1000.74
2024-04-14T02:06:05.999Z,1000.78
2024-04-14T02:06:16.013Z,1000.77
2024-04-14T02:06:35.956Z,1000.73
2024-04-14T02:06:46.020Z,1000.81
2024-04-14T02:06:56.065Z,1000.73
2024-04-14T02:07:06.061Z,1000.79
2024-04-14T02:07:16.050Z,1000.75
2024-04-14T02:07:25.995Z,1000.77
2024-04-14T02:07:36.831Z,1000.71
2024-04-14T02:07:46.065Z,1000.76
2024-04-14T02:07:55.918Z,1000.72
2024-04-14T02:08:15.935Z,1000.77
2024-04-14T02:08:25.948Z,1000.74
2024-04-14T02:08:35.912Z,1000.74
2024-04-14T02:08:45.909Z,1000.72
2024-04-14T02:08:56.005Z,1000.73
2024-04-14T02:09:06.790Z,1000.69
2024-04-14T02:09:26.944Z,1000.74
2024-04-14T02:09:35.949Z,1000.72
2024-04-14T02:09:46.174Z,1000.72
2024-04-14T02:09:55.958Z,1000.72
2024-04-14T02:10:05.986Z,1000.70
2024-04-14T02:10:15.921Z,1000.67
2024-04-14T02:10:35.955Z,1000.72
2024-04-14T02:10:46.834Z,1000.70
2024-04-14T02:10:55.940Z,1000.72
2024-04-14T02:11:06.012Z,1000.70
2024-04-14T02:11:15.936Z,1000.70
2024-04-14T02:11:25.959Z,1000.69
2024-04-14T02:11:46.783Z,1000.70
2024-04-14T02:11:55.897Z,1000.66
2024-04-14T02:12:05.891Z,1000.68
2024-04-14T02:12:15.903Z,1000.69
2024-04-14T02:12:25.992Z,1000.70
2024-04-14T02:12:35.915Z,1000.65
2024-04-14T02:12:55.941Z,1000.66
2024-04-14T02:13:05.934Z,1000.65
2024-04-14T02:13:16.000Z,1000.67
2024-04-14T02:13:25.933Z,1000.69
2024-04-14T02:13:35.974Z,1000.65
2024-04-14T02:13:46.855Z,1000.69
2024-04-14T02:13:56.050Z,1000.74
2024-04-14T02:14:05.926Z,1000.68
2024-04-14T02:14:25.878Z,1000.72
2024-04-14T02:14:35.993Z,1000.68
2024-04-14T02:14:45.895Z,1000.67
2024-04-14T02:14:55.885Z,1000.68
2024-04-14T02:15:05.888Z,1000.73
2024-04-14T02:15:15.913Z,1000.68
2024-04-14T02:15:25.982Z,1000.69
2024-04-14T02:15:45.958Z,1000.72
2024-04-14T02:15:56.881Z,1000.73
2024-04-14T02:16:06.868Z,1000.75
2024-04-14T02:16:16.015Z,1000.69
2024-04-14T02:16:25.868Z,1000.71
2024-04-14T02:16:35.924Z,1000.69
2024-04-14T02:16:55.899Z,1000.71
2024-04-14T02:17:05.885Z,1000.72
2024-04-14T02:17:15.949Z,1000.74
2024-04-14T02:17:25.913Z,1000.71
2024-04-14T02:17:35.963Z,1000.73
2024-04-14T02:17:46.196Z,1000.68
2024-04-14T02:17:56.047Z,1000.70
2024-04-14T02:18:06.107Z,1000.69
2024-04-14T02:18:25.943Z,1000.66
2024-04-14T02:18:35.944Z,1000.70
2024-04-14T02:18:45.949Z,1000.71
2024-04-14T02:18:56.006Z,1000.72